VAM Template | Jonatha

Virtual Airlines Manager! A new look to your va. By: Jonatha Silva




 METAR AND TAF INFORMATION
METAR FOR LICG
ADDS - METARS form results

(2037 UTC 23 April 2019)
Data provider http://aviationweather.gov/metar/data/
 
Forecast for: LICG (PANTELLERIA(IT-A, IT)
Text: TAF LICG 231400Z 2315/2324 16014KT 9999 SCT030
Forecast period: 1500 UTC 23 April 2019 to 0000 UTC 24 April 2019
Forecast type: FROM: standard forecast or significant change
Winds: from the SSE (160 degrees) at 16 MPH (14 knots; 7.2 m/s)
Visibility: 6 or more miles 10+ km)
Ceiling: at least 12,000 feet AGL
Clouds: scattered clouds at 3000 feet AGL
Weather: no significant weather forecast for this period

 AIRPORT MAP

 RUNWAY INFORMATION
Runway 03 Runway length 4003 ft Runway width 98 ft
Runway elevation 620 ft Runway displaced threshold 0 ft Runway heading 28
Runway 21 Runway length 4003 ft Runway width 98 ft
Runway elevation 591 ft Runway displaced threshold 0 ft Runway heading 208
Runway 08 Runway length 5495 ft Runway width 148 ft
Runway elevation 635 ft Runway displaced threshold 0 ft Runway heading 76
Runway 26 Runway length 5495 ft Runway width 148 ft
Runway elevation 603 ft Runway displaced threshold 0 ft Runway heading 256

 AIRPORT FREQUENCIES
Type TWR Name TWR Frequency 118.45 MHZ

 AIRPORT NEAR NAVIGATION AIDS
Type VOR-DME Name Pantelleria Frequency 116100 KHZ
Type NDB Name Pantelleria Frequency 335 KHZ